createdAt,value
2022-11-29T00:01:01.655Z,8.60
2022-11-29T00:03:29.968Z,9.57
2022-11-29T00:05:57.936Z,8.95
2022-11-29T00:08:25.431Z,9.68
2022-11-29T00:10:53.345Z,9.05
2022-11-29T00:13:20.799Z,9.25
2022-11-29T00:15:48.286Z,9.98
2022-11-29T00:18:17.072Z,9.85
2022-11-29T00:20:44.538Z,11.15
2022-11-29T00:23:12.017Z,11.00
2022-11-29T00:25:39.867Z,10.85
2022-11-29T00:28:07.512Z,10.48
2022-11-29T00:30:35.020Z,11.00
2022-11-29T00:33:03.033Z,11.15
2022-11-29T00:35:31.831Z,10.75
2022-11-29T00:37:59.328Z,11.90
2022-11-29T00:40:26.792Z,11.82
2022-11-29T00:42:54.235Z,9.90
2022-11-29T00:45:21.820Z,11.68
2022-11-29T00:47:49.257Z,11.55
2022-11-29T00:50:16.779Z,12.55
2022-11-29T00:52:45.570Z,12.05
2022-11-29T00:55:13.022Z,10.75
2022-11-29T00:57:40.486Z,11.02
2022-11-29T01:00:09.359Z,11.90
2022-11-29T01:02:36.878Z,11.18
2022-11-29T01:05:04.573Z,11.25
2022-11-29T01:07:32.079Z,10.43
2022-11-29T01:10:00.882Z,10.30
2022-11-29T01:12:28.341Z,10.80
2022-11-29T01:14:55.783Z,11.32
2022-11-29T01:17:23.271Z,11.02
2022-11-29T01:19:51.239Z,10.70
2022-11-29T01:22:18.739Z,10.20
2022-11-29T01:24:46.416Z,10.75
2022-11-29T01:27:15.566Z,9.95
2022-11-29T01:29:43.058Z,10.30
2022-11-29T01:32:12.302Z,11.00
2022-11-29T01:34:40.352Z,9.95
2022-11-29T01:37:07.852Z,10.77
2022-11-29T01:39:35.598Z,10.60
2022-11-29T01:42:03.061Z,10.35
2022-11-29T01:45:08.868Z,9.40
2022-11-29T01:47:46.943Z,10.18
2022-11-29T01:50:14.655Z,10.05
2022-11-29T01:52:43.028Z,9.25
2022-11-29T01:55:11.128Z,9.60
2022-11-29T01:57:41.870Z,9.23
2022-11-29T02:00:15.496Z,9.90
2022-11-29T02:02:45.289Z,9.90
2022-11-29T02:05:15.215Z,9.73
2022-11-29T02:07:45.700Z,10.05
2022-11-29T02:10:15.555Z,10.38
2022-11-29T02:12:55.257Z,9.27
2022-11-29T02:15:34.214Z,8.90
2022-11-29T02:18:07.574Z,11.00
2022-11-29T02:21:03.847Z,9.90
2022-11-29T02:23:58.367Z,9.93
2022-11-29T02:26:50.352Z,9.90
2022-11-29T02:29:32.612Z,10.45
2022-11-29T02:32:20.411Z,10.02
2022-11-29T02:35:00.111Z,10.52
2022-11-29T02:37:57.851Z,11.38
2022-11-29T02:40:52.151Z,10.40
2022-11-29T02:43:35.556Z,10.88
2022-11-29T02:46:27.752Z,11.02
2022-11-29T02:49:03.468Z,11.40
2022-11-29T02:51:40.024Z,11.25
2022-11-29T02:54:13.119Z,10.77
2022-11-29T02:56:47.557Z,10.13
2022-11-29T02:59:24.551Z,11.32
2022-11-29T03:02:02.238Z,11.10
2022-11-29T03:04:35.405Z,10.10
2022-11-29T03:07:14.220Z,10.60
2022-11-29T03:09:47.220Z,10.50
2022-11-29T03:12:22.850Z,10.40
2022-11-29T03:14:58.210Z,11.25
2022-11-29T03:17:36.549Z,11.48
2022-11-29T03:20:27.077Z,10.65
2022-11-29T03:23:09.672Z,11.20
2022-11-29T03:25:40.673Z,9.48
2022-11-29T03:28:14.451Z,9.98
2022-11-29T03:30:48.873Z,11.60
2022-11-29T03:33:25.586Z,10.50
2022-11-29T03:36:00.493Z,11.07
2022-11-29T03:38:36.025Z,9.52
2022-11-29T03:41:15.004Z,9.73
2022-11-29T03:43:46.670Z,9.55
2022-11-29T03:46:19.753Z,8.90
2022-11-29T03:48:50.692Z,8.30
2022-11-29T03:51:23.164Z,8.35
2022-11-29T03:53:58.200Z,8.80
2022-11-29T03:56:32.438Z,8.57
2022-11-29T03:59:13.204Z,9.13
2022-11-29T04:02:09.100Z,9.02
2022-11-29T04:05:08.828Z,8.50
2022-11-29T04:07:49.950Z,9.30
2022-11-29T04:10:28.823Z,8.43
2022-11-29T04:13:26.254Z,7.47
2022-11-29T04:16:25.721Z,8.32
2022-11-29T04:19:37.599Z,8.00
2022-11-29T04:22:23.862Z,8.55
2022-11-29T04:25:23.213Z,8.18
2022-11-29T04:28:33.646Z,8.55
2022-11-29T04:31:14.521Z,9.55
2022-11-29T04:34:16.532Z,9.32
2022-11-29T04:36:58.057Z,8.98
2022-11-29T04:39:51.184Z,8.80
2022-11-29T04:42:48.418Z,9.52
2022-11-29T04:45:38.600Z,9.48
2022-11-29T04:48:24.825Z,9.02
2022-11-29T04:51:04.987Z,10.10
2022-11-29T04:53:53.767Z,10.23
2022-11-29T04:56:29.467Z,9.85
2022-11-29T04:59:03.138Z,9.48
2022-11-29T05:01:42.284Z,10.70
2022-11-29T05:04:18.160Z,10.07
2022-11-29T05:06:59.253Z,9.95
2022-11-29T05:09:37.852Z,9.57
2022-11-29T05:12:15.349Z,10.70
2022-11-29T05:15:02.890Z,11.23
2022-11-29T05:17:43.327Z,9.27
2022-11-29T05:20:26.421Z,9.43
2022-11-29T05:23:05.958Z,9.55
2022-11-29T05:25:41.397Z,9.52
2022-11-29T05:28:16.650Z,9.48
2022-11-29T05:33:38.535Z,9.57
2022-11-29T05:36:18.301Z,9.82
2022-11-29T05:38:58.128Z,9.75
2022-11-29T05:41:44.847Z,9.88
2022-11-29T05:44:16.466Z,9.77
2022-11-29T05:46:55.051Z,11.18
2022-11-29T05:49:34.372Z,10.82
2022-11-29T05:52:20.099Z,11.73
2022-11-29T05:57:38.329Z,12.52
2022-11-29T06:00:07.615Z,13.38
2022-11-29T06:02:49.789Z,14.13
2022-11-29T06:05:26.880Z,13.35
2022-11-29T06:07:59.383Z,14.07
2022-11-29T06:10:32.673Z,14.98
2022-11-29T06:13:11.058Z,14.35
2022-11-29T06:15:56.553Z,14.32
2022-11-29T06:18:46.131Z,14.98
2022-11-29T06:21:23.767Z,13.98
2022-11-29T06:24:26.080Z,14.07
2022-11-29T06:27:14.717Z,14.30
2022-11-29T06:29:49.297Z,13.38
2022-11-29T06:32:25.418Z,13.90
2022-11-29T06:34:58.850Z,13.57
2022-11-29T06:37:34.327Z,13.82
2022-11-29T06:40:02.303Z,14.35
2022-11-29T06:42:29.777Z,13.30
2022-11-29T06:44:57.932Z,13.52
2022-11-29T06:47:30.760Z,14.75
2022-11-29T06:50:04.609Z,14.35
2022-11-29T06:52:44.738Z,13.20
2022-11-29T06:55:17.981Z,13.20
2022-11-29T06:58:02.097Z,12.85
2022-11-29T07:00:40.493Z,13.93
2022-11-29T07:03:30.583Z,11.95
2022-11-29T07:05:59.099Z,13.63
2022-11-29T07:08:28.535Z,11.93
2022-11-29T07:10:56.568Z,12.43
2022-11-29T07:13:24.549Z,13.63
2022-11-29T07:16:01.633Z,12.38
2022-11-29T07:18:35.071Z,12.65
2022-11-29T07:21:14.603Z,13.60
2022-11-29T07:23:53.907Z,12.98
2022-11-29T07:26:30.066Z,12.23
2022-11-29T07:29:16.853Z,12.23
2022-11-29T07:31:55.410Z,12.95
2022-11-29T07:34:30.916Z,13.55
2022-11-29T07:37:05.032Z,13.57
2022-11-29T07:39:44.905Z,13.85
2022-11-29T07:42:20.618Z,13.48
2022-11-29T07:44:57.009Z,14.88
2022-11-29T07:47:24.480Z,12.68
2022-11-29T07:49:52.019Z,13.63
2022-11-29T07:52:19.600Z,13.35
2022-11-29T07:54:48.610Z,13.70
2022-11-29T07:57:16.130Z,14.07
2022-11-29T07:59:43.818Z,15.65
2022-11-29T08:02:12.092Z,13.60
2022-11-29T08:04:43.205Z,15.48
2022-11-29T08:07:11.219Z,15.82
2022-11-29T08:09:38.666Z,15.02
2022-11-29T08:12:08.293Z,13.88
2022-11-29T08:14:35.776Z,14.63
2022-11-29T08:17:03.451Z,14.82
2022-11-29T08:19:30.875Z,14.38
2022-11-29T08:21:58.397Z,14.80
2022-11-29T08:24:26.959Z,15.93
2022-11-29T08:26:54.585Z,15.15
2022-11-29T08:29:23.666Z,14.30
2022-11-29T08:31:53.222Z,14.73
2022-11-29T08:34:21.160Z,13.13
2022-11-29T08:36:48.768Z,12.60
2022-11-29T08:39:16.237Z,12.30
2022-11-29T08:41:44.096Z,11.75
2022-11-29T08:44:11.537Z,10.65
2022-11-29T08:46:58.048Z,12.20
2022-11-29T08:49:25.547Z,11.70
2022-11-29T08:52:13.609Z,11.82
2022-11-29T08:54:40.090Z,9.85
2022-11-29T08:57:38.458Z,11.77
2022-11-29T08:59:55.070Z,12.43
2022-11-29T09:02:24.001Z,12.23
2022-11-29T09:04:51.456Z,13.50
2022-11-29T09:07:18.962Z,12.43
2022-11-29T09:09:46.419Z,11.88
2022-11-29T09:12:13.870Z,12.27
2022-11-29T09:14:41.650Z,13.23
2022-11-29T09:17:09.156Z,14.57
2022-11-29T09:19:37.967Z,14.50
2022-11-29T09:22:05.484Z,14.77
2022-11-29T09:24:34.227Z,14.77
2022-11-29T09:27:01.690Z,14.00
2022-11-29T09:29:29.182Z,14.05
2022-11-29T09:31:56.687Z,13.70
2022-11-29T09:34:24.443Z,14.63
2022-11-29T09:36:53.289Z,13.82
2022-11-29T09:39:20.861Z,16.85
2022-11-29T09:42:22.112Z,14.55
2022-11-29T09:45:01.546Z,15.40
2022-11-29T09:48:02.177Z,14.75
2022-11-29T09:50:34.825Z,15.65
2022-11-29T09:53:21.117Z,14.57
2022-11-29T09:56:01.168Z,14.57
2022-11-29T09:58:33.897Z,15.05
2022-11-29T10:01:05.353Z,14.55
2022-11-29T10:03:37.163Z,13.98
2022-11-29T10:06:09.679Z,12.73
2022-11-29T10:08:44.050Z,13.60
2022-11-29T10:11:20.414Z,13.13
2022-11-29T10:13:53.008Z,13.82
2022-11-29T10:16:26.835Z,14.35
2022-11-29T10:18:59.744Z,13.57
2022-11-29T10:21:32.688Z,13.43
2022-11-29T10:24:06.349Z,13.18
2022-11-29T10:26:35.498Z,13.05
2022-11-29T10:29:03.502Z,13.18
2022-11-29T10:31:36.464Z,12.68
2022-11-29T10:34:12.908Z,13.40
2022-11-29T10:36:44.409Z,14.35
2022-11-29T10:39:18.284Z,14.23
2022-11-29T10:41:46.325Z,13.60
2022-11-29T10:44:15.813Z,13.70
2022-11-29T10:46:43.455Z,14.13
2022-11-29T10:49:15.846Z,14.57
2022-11-29T10:51:43.661Z,13.18
2022-11-29T10:54:29.660Z,14.95
2022-11-29T10:56:58.076Z,15.02
2022-11-29T10:59:27.455Z,12.77
2022-11-29T11:01:55.471Z,13.13
2022-11-29T11:04:29.287Z,13.85
2022-11-29T11:07:00.880Z,13.93
2022-11-29T11:09:37.598Z,14.30
2022-11-29T11:12:08.884Z,14.48
2022-11-29T11:14:38.559Z,14.55
2022-11-29T11:17:22.429Z,14.40
2022-11-29T11:19:57.012Z,14.52
2022-11-29T11:22:26.817Z,13.27
2022-11-29T11:25:02.009Z,14.05
2022-11-29T11:29:59.471Z,13.98
2022-11-29T11:32:27.109Z,13.60
2022-11-29T11:34:55.768Z,13.45
2022-11-29T11:37:26.012Z,14.45
2022-11-29T11:39:56.675Z,14.50
2022-11-29T11:42:38.653Z,13.40
2022-11-29T11:45:23.907Z,15.85
2022-11-29T11:47:53.871Z,16.17
2022-11-29T11:50:29.479Z,16.85
2022-11-29T11:52:59.237Z,17.13
2022-11-29T11:55:33.263Z,17.88
2022-11-29T11:58:10.274Z,18.00
2022-11-29T12:01:02.847Z,19.10
2022-11-29T12:03:44.538Z,19.45
2022-11-29T12:06:25.657Z,19.48
2022-11-29T12:08:58.650Z,17.17
2022-11-29T12:11:27.250Z,18.80
2022-11-29T12:14:00.099Z,18.73
2022-11-29T12:16:34.304Z,19.98
2022-11-29T12:19:05.966Z,20.35
2022-11-29T12:21:39.287Z,19.33
2022-11-29T12:24:19.872Z,18.98
2022-11-29T12:26:57.159Z,19.15
2022-11-29T12:29:33.547Z,20.80
2022-11-29T12:32:12.693Z,20.33
2022-11-29T12:34:53.650Z,21.42
2022-11-29T12:37:26.050Z,21.55
2022-11-29T12:39:58.524Z,21.95
2022-11-29T12:42:36.556Z,21.90
2022-11-29T12:45:25.178Z,21.13
2022-11-29T12:48:04.887Z,20.65
2022-11-29T12:50:45.294Z,21.38
2022-11-29T12:53:27.538Z,22.40
2022-11-29T12:56:05.987Z,24.23
2022-11-29T12:58:46.223Z,22.95
2022-11-29T13:01:23.625Z,23.95
2022-11-29T13:03:59.840Z,23.33
2022-11-29T13:06:32.488Z,23.67
2022-11-29T13:09:21.683Z,23.88
2022-11-29T13:11:56.888Z,23.33
2022-11-29T13:17:26.074Z,24.40
2022-11-29T13:19:57.280Z,25.77
2022-11-29T13:22:29.676Z,26.00
2022-11-29T13:25:00.083Z,25.20
2022-11-29T13:27:32.001Z,25.77
2022-11-29T13:30:00.523Z,25.00
2022-11-29T13:32:36.063Z,24.10
2022-11-29T13:35:08.809Z,25.13
2022-11-29T13:37:43.635Z,26.17
2022-11-29T13:40:24.324Z,26.45
2022-11-29T13:43:01.067Z,25.00
2022-11-29T13:45:37.391Z,23.83
2022-11-29T13:48:27.844Z,21.65
2022-11-29T13:50:57.120Z,24.35
2022-11-29T13:53:26.311Z,25.35
2022-11-29T13:56:01.285Z,24.08
2022-11-29T13:58:37.728Z,26.45
2022-11-29T14:01:09.018Z,25.90
2022-11-29T14:03:42.508Z,23.48
2022-11-29T14:06:20.904Z,25.02
2022-11-29T14:09:19.666Z,25.42
2022-11-29T14:11:50.543Z,23.85
2022-11-29T14:14:27.083Z,24.90
2022-11-29T14:16:58.935Z,24.20
2022-11-29T14:19:33.709Z,23.65
2022-11-29T14:25:16.531Z,23.33
2022-11-29T14:28:01.637Z,22.33
2022-11-29T14:30:45.102Z,22.23
2022-11-29T14:33:24.042Z,21.52
2022-11-29T14:36:17.920Z,21.27
2022-11-29T14:38:55.852Z,18.90
2022-11-29T14:41:32.779Z,18.38
2022-11-29T14:44:15.102Z,18.27
2022-11-29T14:46:42.644Z,18.67
2022-11-29T14:49:22.879Z,19.27
2022-11-29T14:52:11.237Z,18.25
2022-11-29T14:54:55.660Z,17.63
2022-11-29T14:58:05.692Z,18.20
2022-11-29T15:00:41.756Z,17.83
2022-11-29T15:03:13.735Z,17.85
2022-11-29T15:05:43.816Z,17.85
2022-11-29T15:08:17.457Z,18.50
2022-11-29T15:10:50.020Z,18.25
2022-11-29T15:13:24.048Z,18.08
2022-11-29T15:16:12.686Z,17.20
2022-11-29T15:19:02.593Z,18.15
2022-11-29T15:21:38.671Z,17.27
2022-11-29T15:24:13.451Z,18.05
2022-11-29T15:26:55.735Z,16.15
2022-11-29T15:29:23.519Z,15.77
2022-11-29T15:31:54.266Z,15.93
2022-11-29T15:34:26.546Z,15.73
2022-11-29T15:36:54.076Z,15.25
2022-11-29T15:39:31.720Z,15.98
2022-11-29T15:42:04.118Z,15.75
2022-11-29T15:44:33.162Z,14.90
2022-11-29T15:47:17.663Z,16.73
2022-11-29T15:49:45.176Z,16.05
2022-11-29T15:52:20.481Z,15.43
2022-11-29T15:54:53.100Z,14.65
2022-11-29T15:57:26.168Z,15.95
2022-11-29T15:59:56.688Z,14.95
2022-11-29T16:02:27.540Z,13.40
2022-11-29T16:04:58.905Z,14.20
2022-11-29T16:07:31.996Z,15.95
2022-11-29T16:10:04.752Z,14.45
2022-11-29T16:12:33.092Z,14.40
2022-11-29T16:15:02.045Z,14.52
2022-11-29T16:17:31.835Z,15.55
2022-11-29T16:20:22.604Z,14.27
2022-11-29T16:23:04.072Z,13.68
2022-11-29T16:25:37.669Z,13.88
2022-11-29T16:28:06.442Z,13.85
2022-11-29T16:30:34.161Z,13.98
2022-11-29T16:33:03.947Z,14.93
2022-11-29T16:35:33.726Z,14.05
2022-11-29T16:38:04.476Z,14.60
2022-11-29T16:40:35.589Z,14.05
2022-11-29T16:43:09.152Z,15.00
2022-11-29T16:45:38.666Z,13.25
2022-11-29T16:48:29.952Z,13.82
2022-11-29T16:51:18.067Z,15.20
2022-11-29T16:53:49.824Z,15.23
2022-11-29T16:56:22.198Z,15.27
2022-11-29T16:59:24.922Z,13.80
2022-11-29T17:01:41.558Z,15.32
2022-11-29T17:04:10.070Z,15.80
2022-11-29T17:06:37.933Z,14.93
2022-11-29T17:09:06.020Z,14.57
2022-11-29T17:11:34.826Z,16.63
2022-11-29T17:14:02.316Z,16.40
2022-11-29T17:16:29.830Z,15.20
2022-11-29T17:18:57.287Z,15.75
2022-11-29T17:21:26.007Z,15.90
2022-11-29T17:23:54.476Z,17.30
2022-11-29T17:26:22.978Z,16.35
2022-11-29T17:28:53.108Z,16.23
2022-11-29T17:31:22.689Z,16.58
2022-11-29T17:33:50.301Z,17.23
2022-11-29T17:36:20.900Z,16.67
2022-11-29T17:38:48.725Z,18.38
2022-11-29T17:41:18.548Z,18.08
2022-11-29T17:43:46.019Z,17.77
2022-11-29T17:46:16.740Z,19.05
2022-11-29T17:48:46.460Z,19.25
2022-11-29T17:51:43.751Z,18.30
2022-11-29T17:54:04.281Z,18.83
2022-11-29T17:56:32.247Z,18.58
2022-11-29T17:59:01.804Z,17.60
2022-11-29T18:01:33.243Z,17.83
2022-11-29T18:04:02.621Z,17.17
2022-11-29T18:06:32.202Z,18.75
2022-11-29T18:09:01.328Z,19.73
2022-11-29T18:11:30.893Z,20.58
2022-11-29T18:14:00.104Z,20.23
2022-11-29T18:16:30.596Z,20.38
2022-11-29T18:19:00.320Z,17.73
2022-11-29T18:21:28.459Z,18.48
2022-11-29T18:23:56.094Z,16.70
2022-11-29T18:26:25.628Z,18.42
2022-11-29T18:28:53.436Z,18.67
2022-11-29T18:31:22.662Z,18.65
2022-11-29T18:33:54.248Z,18.75
2022-11-29T18:36:24.009Z,18.27
2022-11-29T18:38:56.732Z,18.60
2022-11-29T18:41:25.852Z,18.05
2022-11-29T18:43:58.754Z,19.17
2022-11-29T18:46:28.171Z,19.25
2022-11-29T18:48:57.100Z,18.73
2022-11-29T18:51:24.617Z,18.13
2022-11-29T18:53:53.104Z,17.92
2022-11-29T18:56:23.008Z,17.48
2022-11-29T18:58:58.203Z,19.30
2022-11-29T19:01:27.875Z,19.48
2022-11-29T19:04:00.079Z,19.25
2022-11-29T19:06:35.437Z,18.35
2022-11-29T19:09:07.795Z,19.83
2022-11-29T19:11:35.488Z,20.55
2022-11-29T19:14:05.196Z,18.52
2022-11-29T19:16:34.372Z,18.83
2022-11-29T19:19:04.131Z,18.15
2022-11-29T19:21:34.272Z,18.23
2022-11-29T19:24:03.485Z,18.67
2022-11-29T19:26:32.574Z,18.30
2022-11-29T19:29:01.788Z,18.70
2022-11-29T19:31:29.510Z,19.10
2022-11-29T19:33:58.075Z,19.17
2022-11-29T19:36:29.611Z,18.58
2022-11-29T19:38:58.061Z,17.90
2022-11-29T19:41:27.471Z,18.45
2022-11-29T19:43:56.458Z,19.05
2022-11-29T19:46:26.413Z,18.00
2022-11-29T19:49:01.409Z,18.05
2022-11-29T19:51:31.257Z,18.25
2022-11-29T19:54:00.658Z,18.90
2022-11-29T19:56:29.847Z,18.25
2022-11-29T19:58:59.615Z,18.42
2022-11-29T20:01:36.049Z,17.10
2022-11-29T20:04:07.738Z,18.40
2022-11-29T20:06:36.944Z,18.58
2022-11-29T20:09:06.047Z,17.90
2022-11-29T20:11:33.651Z,19.13
2022-11-29T20:14:03.497Z,18.85
2022-11-29T20:16:32.219Z,20.95
2022-11-29T20:19:00.207Z,17.17
2022-11-29T20:21:29.598Z,18.00
2022-11-29T20:24:00.536Z,17.13
2022-11-29T20:26:28.987Z,17.88
2022-11-29T20:28:56.662Z,17.23
2022-11-29T20:31:34.210Z,17.58
2022-11-29T20:34:02.168Z,16.85
2022-11-29T20:36:43.161Z,17.52
2022-11-29T20:39:26.172Z,18.13
2022-11-29T20:42:10.717Z,17.27
2022-11-29T20:44:40.217Z,17.38
2022-11-29T20:47:17.180Z,16.88
2022-11-29T20:49:45.075Z,17.73
2022-11-29T20:52:24.920Z,19.33
2022-11-29T20:54:54.224Z,18.50
2022-11-29T20:57:23.983Z,18.48
2022-11-29T20:59:51.552Z,17.35
2022-11-29T21:02:23.257Z,18.13
2022-11-29T21:04:51.020Z,19.95
2022-11-29T21:07:18.876Z,18.17
2022-11-29T21:09:46.934Z,18.00
2022-11-29T21:12:16.956Z,17.95
2022-11-29T21:14:45.147Z,17.73
2022-11-29T21:17:13.572Z,19.65
2022-11-29T21:19:41.577Z,18.25
2022-11-29T21:22:17.911Z,18.77
2022-11-29T21:24:54.436Z,17.27
2022-11-29T21:27:28.216Z,17.70
2022-11-29T21:29:56.722Z,16.40
2022-11-29T21:32:25.853Z,17.27
2022-11-29T21:34:53.855Z,17.63
2022-11-29T21:37:26.079Z,18.90
2022-11-29T21:39:54.565Z,17.33
2022-11-29T21:42:23.490Z,18.63
2022-11-29T21:44:51.072Z,18.45
2022-11-29T21:47:19.810Z,18.25
2022-11-29T21:49:47.909Z,17.02
2022-11-29T21:52:22.047Z,19.30
2022-11-29T21:54:50.353Z,18.50
2022-11-29T21:57:17.901Z,17.52
2022-11-29T21:59:47.288Z,18.55
2022-11-29T22:02:14.957Z,17.15
2022-11-29T22:04:42.784Z,17.85
2022-11-29T22:07:10.456Z,18.13
2022-11-29T22:09:37.969Z,17.58
2022-11-29T22:12:19.769Z,18.20
2022-11-29T22:14:54.492Z,17.92
2022-11-29T22:17:22.011Z,18.27
2022-11-29T22:19:49.491Z,18.17
2022-11-29T22:22:17.101Z,18.60
2022-11-29T22:24:44.807Z,19.45
2022-11-29T22:27:12.499Z,19.40
2022-11-29T22:29:39.957Z,17.80
2022-11-29T22:32:08.793Z,18.70
2022-11-29T22:34:36.257Z,18.30
2022-11-29T22:37:03.760Z,18.00
2022-11-29T22:39:31.297Z,18.52
2022-11-29T22:41:58.823Z,18.80
2022-11-29T22:44:26.286Z,20.95
2022-11-29T22:46:53.889Z,20.02
2022-11-29T22:49:22.796Z,19.05
2022-11-29T22:51:50.255Z,19.90
2022-11-29T22:54:17.888Z,20.80
2022-11-29T22:56:46.413Z,19.30
2022-11-29T22:59:14.053Z,20.00
2022-11-29T23:01:42.458Z,21.00
2022-11-29T23:04:11.040Z,19.38
2022-11-29T23:06:42.008Z,20.10
2022-11-29T23:09:11.983Z,20.48
2022-11-29T23:11:39.824Z,20.02
2022-11-29T23:14:07.377Z,20.27
2022-11-29T23:16:35.171Z,19.13
2022-11-29T23:19:02.868Z,20.92
2022-11-29T23:21:32.405Z,18.63
2022-11-29T23:24:01.719Z,21.15
2022-11-29T23:26:31.195Z,19.45
2022-11-29T23:28:59.559Z,20.83
2022-11-29T23:31:27.203Z,20.33
2022-11-29T23:33:55.001Z,21.17
2022-11-29T23:36:22.530Z,19.45
2022-11-29T23:38:50.290Z,20.80
2022-11-29T23:41:19.225Z,20.45
2022-11-29T23:43:46.908Z,19.75
2022-11-29T23:46:16.269Z,20.20
2022-11-29T23:48:43.953Z,19.85
2022-11-29T23:51:12.082Z,19.73
2022-11-29T23:53:40.191Z,20.50
2022-11-29T23:56:10.633Z,20.75
2022-11-29T23:58:40.179Z,19.45
